sensor_id;sensor_type;location;lat;lon;timestamp;temperature;humidity
22813;DHT22;11573;51.334;3.244;2022-11-11T00:00:18;10.50;99.90
22813;DHT22;11573;51.334;3.244;2022-11-11T00:03:04;10.50;99.90
22813;DHT22;11573;51.334;3.244;2022-11-11T00:05:49;10.50;99.90
22813;DHT22;11573;51.334;3.244;2022-11-11T00:08:35;10.50;99.90
22813;DHT22;11573;51.334;3.244;2022-11-11T00:11:20;10.50;99.90
22813;DHT22;11573;51.334;3.244;2022-11-11T00:14:06;10.60;99.90
22813;DHT22;11573;51.334;3.244;2022-11-11T00:16:51;10.60;99.90
22813;DHT22;11573;51.334;3.244;2022-11-11T00:19:55;10.60;99.90
22813;DHT22;11573;51.334;3.244;2022-11-11T00:23:03;10.70;99.90
22813;DHT22;11573;51.334;3.244;2022-11-11T00:26:10;10.70;99.90
22813;DHT22;11573;51.334;3.244;2022-11-11T00:29:15;10.70;99.90
22813;DHT22;11573;51.334;3.244;2022-11-11T00:32:01;10.70;99.90
22813;DHT22;11573;51.334;3.244;2022-11-11T00:35:05;10.70;99.90
22813;DHT22;11573;51.334;3.244;2022-11-11T00:38:11;10.70;99.90
22813;DHT22;11573;51.334;3.244;2022-11-11T00:41:22;10.70;99.90
22813;DHT22;11573;51.334;3.244;2022-11-11T00:44:08;10.70;99.90
22813;DHT22;11573;51.334;3.244;2022-11-11T00:46:53;10.70;99.90
22813;DHT22;11573;51.334;3.244;2022-11-11T00:49:57;10.70;99.90
22813;DHT22;11573;51.334;3.244;2022-11-11T00:53:03;10.70;99.90
22813;DHT22;11573;51.334;3.244;2022-11-11T00:55:49;10.70;99.90
22813;DHT22;11573;51.334;3.244;2022-11-11T00:58:34;10.70;99.90
22813;DHT22;11573;51.334;3.244;2022-11-11T01:01:20;10.70;99.90
22813;DHT22;11573;51.334;3.244;2022-11-11T01:04:05;10.70;99.90
22813;DHT22;11573;51.334;3.244;2022-11-11T01:06:51;10.70;99.90
22813;DHT22;11573;51.334;3.244;2022-11-11T01:09:36;10.70;99.90
22813;DHT22;11573;51.334;3.244;2022-11-11T01:12:22;10.70;99.90
22813;DHT22;11573;51.334;3.244;2022-11-11T01:15:07;10.70;99.90
22813;DHT22;11573;51.334;3.244;2022-11-11T01:17:53;10.60;99.90
22813;DHT22;11573;51.334;3.244;2022-11-11T01:20:39;10.60;99.90
22813;DHT22;11573;51.334;3.244;2022-11-11T01:23:27;10.60;99.90
22813;DHT22;11573;51.334;3.244;2022-11-11T01:26:20;10.60;99.90
22813;DHT22;11573;51.334;3.244;2022-11-11T01:29:13;10.60;99.90
22813;DHT22;11573;51.334;3.244;2022-11-11T01:31:58;10.60;99.90
22813;DHT22;11573;51.334;3.244;2022-11-11T01:34:44;10.60;99.90
22813;DHT22;11573;51.334;3.244;2022-11-11T01:37:32;10.60;99.90
22813;DHT22;11573;51.334;3.244;2022-11-11T01:40:18;10.50;99.90
22813;DHT22;11573;51.334;3.244;2022-11-11T01:45:58;10.50;99.90
22813;DHT22;11573;51.334;3.244;2022-11-11T01:48:55;10.50;99.90
22813;DHT22;11573;51.334;3.244;2022-11-11T01:52:12;10.50;99.90
22813;DHT22;11573;51.334;3.244;2022-11-11T01:57:57;10.50;99.90
22813;DHT22;11573;51.334;3.244;2022-11-11T02:00:44;10.50;99.90
22813;DHT22;11573;51.334;3.244;2022-11-11T02:03:34;10.40;99.90
22813;DHT22;11573;51.334;3.244;2022-11-11T02:06:21;10.40;99.90
22813;DHT22;11573;51.334;3.244;2022-11-11T02:09:07;10.40;99.90
22813;DHT22;11573;51.334;3.244;2022-11-11T02:11:54;10.40;99.90
22813;DHT22;11573;51.334;3.244;2022-11-11T02:15:00;10.40;99.90
22813;DHT22;11573;51.334;3.244;2022-11-11T02:17:48;10.30;99.90
22813;DHT22;11573;51.334;3.244;2022-11-11T02:20:43;10.30;99.90
22813;DHT22;11573;51.334;3.244;2022-11-11T02:23:38;10.40;99.90
22813;DHT22;11573;51.334;3.244;2022-11-11T02:26:30;10.40;99.90
22813;DHT22;11573;51.334;3.244;2022-11-11T02:29:19;10.40;99.90
22813;DHT22;11573;51.334;3.244;2022-11-11T02:32:05;10.40;99.90
22813;DHT22;11573;51.334;3.244;2022-11-11T02:34:51;10.40;99.90
22813;DHT22;11573;51.334;3.244;2022-11-11T02:37:36;10.40;99.90
22813;DHT22;11573;51.334;3.244;2022-11-11T02:40:37;10.40;99.90
22813;DHT22;11573;51.334;3.244;2022-11-11T02:43:22;10.40;99.90
22813;DHT22;11573;51.334;3.244;2022-11-11T02:46:08;10.30;99.90
22813;DHT22;11573;51.334;3.244;2022-11-11T02:48:54;10.30;99.90
22813;DHT22;11573;51.334;3.244;2022-11-11T02:51:40;10.30;99.90
22813;DHT22;11573;51.334;3.244;2022-11-11T02:54:25;10.30;99.90
22813;DHT22;11573;51.334;3.244;2022-11-11T02:57:11;10.20;99.90
22813;DHT22;11573;51.334;3.244;2022-11-11T02:59:58;10.20;99.90
22813;DHT22;11573;51.334;3.244;2022-11-11T03:02:45;10.20;99.90
22813;DHT22;11573;51.334;3.244;2022-11-11T03:05:31;10.20;99.90
22813;DHT22;11573;51.334;3.244;2022-11-11T03:08:17;10.20;99.90
22813;DHT22;11573;51.334;3.244;2022-11-11T03:11:03;10.20;99.90
22813;DHT22;11573;51.334;3.244;2022-11-11T03:13:48;10.20;99.90
22813;DHT22;11573;51.334;3.244;2022-11-11T03:16:35;10.20;99.90
22813;DHT22;11573;51.334;3.244;2022-11-11T03:19:38;10.20;99.90
22813;DHT22;11573;51.334;3.244;2022-11-11T03:22:24;10.20;99.90
22813;DHT22;11573;51.334;3.244;2022-11-11T03:25:30;10.20;99.90
22813;DHT22;11573;51.334;3.244;2022-11-11T03:28:24;10.20;99.90
22813;DHT22;11573;51.334;3.244;2022-11-11T03:31:10;10.10;99.90
22813;DHT22;11573;51.334;3.244;2022-11-11T03:33:55;10.10;99.90
22813;DHT22;11573;51.334;3.244;2022-11-11T03:37:02;10.10;99.90
22813;DHT22;11573;51.334;3.244;2022-11-11T03:40:07;10.10;99.90
22813;DHT22;11573;51.334;3.244;2022-11-11T03:42:52;10.00;99.90
22813;DHT22;11573;51.334;3.244;2022-11-11T03:45:42;10.00;99.90
22813;DHT22;11573;51.334;3.244;2022-11-11T03:48:30;10.00;99.90
22813;DHT22;11573;51.334;3.244;2022-11-11T03:51:16;10.00;99.90
22813;DHT22;11573;51.334;3.244;2022-11-11T03:54:01;9.90;99.90
22813;DHT22;11573;51.334;3.244;2022-11-11T03:56:47;9.90;99.90
22813;DHT22;11573;51.334;3.244;2022-11-11T03:59:32;9.90;99.90
22813;DHT22;11573;51.334;3.244;2022-11-11T04:02:18;9.80;99.90
22813;DHT22;11573;51.334;3.244;2022-11-11T04:05:22;9.80;99.90
22813;DHT22;11573;51.334;3.244;2022-11-11T04:08:26;9.80;99.90
22813;DHT22;11573;51.334;3.244;2022-11-11T04:11:34;9.70;99.90
22813;DHT22;11573;51.334;3.244;2022-11-11T04:14:21;9.70;99.90
22813;DHT22;11573;51.334;3.244;2022-11-11T04:17:26;9.70;99.90
22813;DHT22;11573;51.334;3.244;2022-11-11T04:20:11;9.60;99.90
22813;DHT22;11573;51.334;3.244;2022-11-11T04:23:15;9.60;99.90
22813;DHT22;11573;51.334;3.244;2022-11-11T04:26:01;9.70;99.90
22813;DHT22;11573;51.334;3.244;2022-11-11T04:28:46;9.70;99.90
22813;DHT22;11573;51.334;3.244;2022-11-11T04:31:51;9.70;99.90
22813;DHT22;11573;51.334;3.244;2022-11-11T04:34:57;9.70;99.90
22813;DHT22;11573;51.334;3.244;2022-11-11T04:37:47;9.60;99.90
22813;DHT22;11573;51.334;3.244;2022-11-11T04:40:35;9.60;99.90
22813;DHT22;11573;51.334;3.244;2022-11-11T04:43:39;9.60;99.90
22813;DHT22;11573;51.334;3.244;2022-11-11T04:46:43;9.60;99.90
22813;DHT22;11573;51.334;3.244;2022-11-11T04:49:29;9.50;99.90
22813;DHT22;11573;51.334;3.244;2022-11-11T04:52:14;9.50;99.90
22813;DHT22;11573;51.334;3.244;2022-11-11T04:55:11;9.40;99.90
22813;DHT22;11573;51.334;3.244;2022-11-11T04:58:20;9.40;99.90
22813;DHT22;11573;51.334;3.244;2022-11-11T05:01:06;9.40;99.90
22813;DHT22;11573;51.334;3.244;2022-11-11T05:03:51;9.40;99.90
22813;DHT22;11573;51.334;3.244;2022-11-11T05:06:37;9.40;99.90
22813;DHT22;11573;51.334;3.244;2022-11-11T05:09:44;9.30;99.90
22813;DHT22;11573;51.334;3.244;2022-11-11T05:12:29;9.30;99.90
22813;DHT22;11573;51.334;3.244;2022-11-11T05:15:15;9.30;99.90
22813;DHT22;11573;51.334;3.244;2022-11-11T05:18:19;9.30;99.90
22813;DHT22;11573;51.334;3.244;2022-11-11T05:21:27;9.30;99.90
22813;DHT22;11573;51.334;3.244;2022-11-11T05:24:14;9.20;99.90
22813;DHT22;11573;51.334;3.244;2022-11-11T05:27:18;9.20;99.90
22813;DHT22;11573;51.334;3.244;2022-11-11T05:30:07;9.20;99.90
22813;DHT22;11573;51.334;3.244;2022-11-11T05:32:54;9.20;99.90
22813;DHT22;11573;51.334;3.244;2022-11-11T05:35:40;9.20;99.90
22813;DHT22;11573;51.334;3.244;2022-11-11T05:38:26;9.10;99.90
22813;DHT22;11573;51.334;3.244;2022-11-11T05:41:11;9.10;99.90
22813;DHT22;11573;51.334;3.244;2022-11-11T05:43:57;9.10;99.90
22813;DHT22;11573;51.334;3.244;2022-11-11T05:46:42;9.10;99.90
22813;DHT22;11573;51.334;3.244;2022-11-11T05:49:28;9.00;99.90
22813;DHT22;11573;51.334;3.244;2022-11-11T05:52:14;9.00;99.90
22813;DHT22;11573;51.334;3.244;2022-11-11T05:55:02;9.00;99.90
22813;DHT22;11573;51.334;3.244;2022-11-11T05:57:48;9.00;99.90
22813;DHT22;11573;51.334;3.244;2022-11-11T06:00:33;9.00;99.90
22813;DHT22;11573;51.334;3.244;2022-11-11T06:03:19;9.10;99.90
22813;DHT22;11573;51.334;3.244;2022-11-11T06:06:04;9.10;99.90
22813;DHT22;11573;51.334;3.244;2022-11-11T06:08:50;9.10;99.90
22813;DHT22;11573;51.334;3.244;2022-11-11T06:11:36;9.10;99.90
22813;DHT22;11573;51.334;3.244;2022-11-11T06:14:21;9.10;99.90
22813;DHT22;11573;51.334;3.244;2022-11-11T06:17:06;9.20;99.90
22813;DHT22;11573;51.334;3.244;2022-11-11T06:19:52;9.20;99.90
22813;DHT22;11573;51.334;3.244;2022-11-11T06:22:37;9.20;99.90
22813;DHT22;11573;51.334;3.244;2022-11-11T06:25:41;9.30;99.90
22813;DHT22;11573;51.334;3.244;2022-11-11T06:28:50;9.30;99.90
22813;DHT22;11573;51.334;3.244;2022-11-11T06:31:36;9.30;99.90
22813;DHT22;11573;51.334;3.244;2022-11-11T06:34:21;9.30;99.90
22813;DHT22;11573;51.334;3.244;2022-11-11T06:37:07;9.40;99.90
22813;DHT22;11573;51.334;3.244;2022-11-11T06:39:52;9.30;99.90
22813;DHT22;11573;51.334;3.244;2022-11-11T06:42:38;9.30;99.90
22813;DHT22;11573;51.334;3.244;2022-11-11T06:45:24;9.30;99.90
22813;DHT22;11573;51.334;3.244;2022-11-11T06:48:09;9.40;99.90
22813;DHT22;11573;51.334;3.244;2022-11-11T06:51:04;9.40;99.90
22813;DHT22;11573;51.334;3.244;2022-11-11T06:53:50;9.40;99.90
22813;DHT22;11573;51.334;3.244;2022-11-11T06:56:36;9.40;99.90
22813;DHT22;11573;51.334;3.244;2022-11-11T06:59:21;9.40;99.90
22813;DHT22;11573;51.334;3.244;2022-11-11T07:02:13;9.40;99.90
22813;DHT22;11573;51.334;3.244;2022-11-11T07:04:59;9.50;99.90
22813;DHT22;11573;51.334;3.244;2022-11-11T07:07:44;9.50;99.90
22813;DHT22;11573;51.334;3.244;2022-11-11T07:10:31;9.50;99.90
22813;DHT22;11573;51.334;3.244;2022-11-11T07:13:18;9.60;99.90
22813;DHT22;11573;51.334;3.244;2022-11-11T07:16:03;9.60;99.90
22813;DHT22;11573;51.334;3.244;2022-11-11T07:18:48;9.60;99.90
22813;DHT22;11573;51.334;3.244;2022-11-11T07:21:34;9.60;99.90
22813;DHT22;11573;51.334;3.244;2022-11-11T07:24:20;9.60;99.90
22813;DHT22;11573;51.334;3.244;2022-11-11T07:27:05;9.70;99.90
22813;DHT22;11573;51.334;3.244;2022-11-11T07:29:51;9.60;99.90
22813;DHT22;11573;51.334;3.244;2022-11-11T07:32:38;9.70;99.90
22813;DHT22;11573;51.334;3.244;2022-11-11T07:35:28;9.70;99.90
22813;DHT22;11573;51.334;3.244;2022-11-11T07:38:14;9.70;99.90
22813;DHT22;11573;51.334;3.244;2022-11-11T07:40:59;9.80;99.90
22813;DHT22;11573;51.334;3.244;2022-11-11T07:43:45;9.80;99.90
22813;DHT22;11573;51.334;3.244;2022-11-11T07:46:30;9.80;99.90
22813;DHT22;11573;51.334;3.244;2022-11-11T07:49:16;9.80;99.90
22813;DHT22;11573;51.334;3.244;2022-11-11T07:52:01;9.80;99.90
22813;DHT22;11573;51.334;3.244;2022-11-11T07:54:47;9.80;99.90
22813;DHT22;11573;51.334;3.244;2022-11-11T07:57:32;9.90;99.90
22813;DHT22;11573;51.334;3.244;2022-11-11T08:00:18;9.90;99.90
22813;DHT22;11573;51.334;3.244;2022-11-11T08:03:04;9.90;99.90
22813;DHT22;11573;51.334;3.244;2022-11-11T08:05:54;10.00;99.90
22813;DHT22;11573;51.334;3.244;2022-11-11T08:08:39;10.00;99.90
22813;DHT22;11573;51.334;3.244;2022-11-11T08:11:25;10.10;99.90
22813;DHT22;11573;51.334;3.244;2022-11-11T08:14:29;10.10;99.90
22813;DHT22;11573;51.334;3.244;2022-11-11T08:17:14;10.20;99.90
22813;DHT22;11573;51.334;3.244;2022-11-11T08:20:00;10.30;99.90
22813;DHT22;11573;51.334;3.244;2022-11-11T08:22:45;10.40;99.90
22813;DHT22;11573;51.334;3.244;2022-11-11T08:25:51;10.30;99.90
22813;DHT22;11573;51.334;3.244;2022-11-11T08:28:37;10.40;99.90
22813;DHT22;11573;51.334;3.244;2022-11-11T08:31:22;10.50;99.90
22813;DHT22;11573;51.334;3.244;2022-11-11T08:34:08;10.40;99.90
22813;DHT22;11573;51.334;3.244;2022-11-11T08:36:53;10.50;99.90
22813;DHT22;11573;51.334;3.244;2022-11-11T08:39:38;10.60;99.90
22813;DHT22;11573;51.334;3.244;2022-11-11T08:42:24;10.60;99.90
22813;DHT22;11573;51.334;3.244;2022-11-11T08:45:10;10.60;99.90
22813;DHT22;11573;51.334;3.244;2022-11-11T08:47:55;10.60;99.90
22813;DHT22;11573;51.334;3.244;2022-11-11T08:50:41;10.60;99.90
22813;DHT22;11573;51.334;3.244;2022-11-11T08:53:26;10.70;99.90
22813;DHT22;11573;51.334;3.244;2022-11-11T08:56:12;10.70;99.90
22813;DHT22;11573;51.334;3.244;2022-11-11T08:58:57;10.70;99.90
22813;DHT22;11573;51.334;3.244;2022-11-11T09:01:43;10.70;99.90
22813;DHT22;11573;51.334;3.244;2022-11-11T09:04:28;10.80;99.90
22813;DHT22;11573;51.334;3.244;2022-11-11T09:07:29;10.80;99.90
22813;DHT22;11573;51.334;3.244;2022-11-11T09:10:14;10.90;99.90
22813;DHT22;11573;51.334;3.244;2022-11-11T09:13:00;10.90;99.90
22813;DHT22;11573;51.334;3.244;2022-11-11T09:15:46;10.80;99.90
22813;DHT22;11573;51.334;3.244;2022-11-11T09:18:31;10.80;99.90
22813;DHT22;11573;51.334;3.244;2022-11-11T09:21:17;10.80;99.90
22813;DHT22;11573;51.334;3.244;2022-11-11T09:24:04;10.80;99.90
22813;DHT22;11573;51.334;3.244;2022-11-11T09:26:50;10.80;99.90
22813;DHT22;11573;51.334;3.244;2022-11-11T09:29:36;10.90;99.90
22813;DHT22;11573;51.334;3.244;2022-11-11T09:32:21;11.00;99.90
22813;DHT22;11573;51.334;3.244;2022-11-11T09:35:07;11.20;99.90
22813;DHT22;11573;51.334;3.244;2022-11-11T09:37:58;11.30;99.90
22813;DHT22;11573;51.334;3.244;2022-11-11T09:40:56;11.40;99.90
22813;DHT22;11573;51.334;3.244;2022-11-11T09:43:51;11.20;99.90
22813;DHT22;11573;51.334;3.244;2022-11-11T09:50:05;11.30;99.90
22813;DHT22;11573;51.334;3.244;2022-11-11T09:56:07;11.90;99.90
22813;DHT22;11573;51.334;3.244;2022-11-11T10:02:01;11.80;99.90
22813;DHT22;11573;51.334;3.244;2022-11-11T10:04:54;11.70;99.90
22813;DHT22;11573;51.334;3.244;2022-11-11T10:07:48;11.90;99.90
22813;DHT22;11573;51.334;3.244;2022-11-11T10:10:45;12.00;99.90
22813;DHT22;11573;51.334;3.244;2022-11-11T10:13:35;12.00;99.90
22813;DHT22;11573;51.334;3.244;2022-11-11T10:16:49;12.00;99.90
22813;DHT22;11573;51.334;3.244;2022-11-11T10:19:48;11.90;99.90
22813;DHT22;11573;51.334;3.244;2022-11-11T10:22:38;11.70;99.90
22813;DHT22;11573;51.334;3.244;2022-11-11T10:25:25;11.50;99.90
22813;DHT22;11573;51.334;3.244;2022-11-11T10:28:19;11.50;99.90
22813;DHT22;11573;51.334;3.244;2022-11-11T10:31:15;11.50;99.90
22813;DHT22;11573;51.334;3.244;2022-11-11T10:34:12;11.50;99.90
22813;DHT22;11573;51.334;3.244;2022-11-11T10:36:59;11.50;99.90
22813;DHT22;11573;51.334;3.244;2022-11-11T10:40:06;11.60;99.90
22813;DHT22;11573;51.334;3.244;2022-11-11T10:42:55;11.80;99.90
22813;DHT22;11573;51.334;3.244;2022-11-11T10:45:47;11.70;99.90
22813;DHT22;11573;51.334;3.244;2022-11-11T10:48:47;11.70;99.90
22813;DHT22;11573;51.334;3.244;2022-11-11T10:52:06;11.80;99.90
22813;DHT22;11573;51.334;3.244;2022-11-11T10:54:57;11.60;99.90
22813;DHT22;11573;51.334;3.244;2022-11-11T10:57:49;11.70;99.90
22813;DHT22;11573;51.334;3.244;2022-11-11T11:00:38;11.70;99.90
22813;DHT22;11573;51.334;3.244;2022-11-11T11:03:35;11.90;99.90
22813;DHT22;11573;51.334;3.244;2022-11-11T11:06:25;12.00;99.90
22813;DHT22;11573;51.334;3.244;2022-11-11T11:09:23;12.20;99.90
22813;DHT22;11573;51.334;3.244;2022-11-11T11:15:05;12.60;99.90
22813;DHT22;11573;51.334;3.244;2022-11-11T11:18:03;12.50;99.90
22813;DHT22;11573;51.334;3.244;2022-11-11T11:21:01;12.60;99.90
22813;DHT22;11573;51.334;3.244;2022-11-11T11:23:46;12.70;99.90
22813;DHT22;11573;51.334;3.244;2022-11-11T11:26:50;12.70;99.90
22813;DHT22;11573;51.334;3.244;2022-11-11T11:29:39;12.70;99.90
22813;DHT22;11573;51.334;3.244;2022-11-11T11:32:28;12.70;99.90
22813;DHT22;11573;51.334;3.244;2022-11-11T11:35:40;12.80;99.90
22813;DHT22;11573;51.334;3.244;2022-11-11T11:38:41;13.10;99.90
22813;DHT22;11573;51.334;3.244;2022-11-11T11:41:37;13.30;99.90
22813;DHT22;11573;51.334;3.244;2022-11-11T11:44:27;13.50;99.90
22813;DHT22;11573;51.334;3.244;2022-11-11T11:47:41;13.50;99.90
22813;DHT22;11573;51.334;3.244;2022-11-11T11:53:27;13.60;99.90
22813;DHT22;11573;51.334;3.244;2022-11-11T12:04:58;13.70;99.90
22813;DHT22;11573;51.334;3.244;2022-11-11T12:11:05;13.80;99.90
22813;DHT22;11573;51.334;3.244;2022-11-11T12:14:40;13.80;99.90
22813;DHT22;11573;51.334;3.244;2022-11-11T12:26:51;13.60;99.90
22813;DHT22;11573;51.334;3.244;2022-11-11T12:47:36;13.80;99.90
22813;DHT22;11573;51.334;3.244;2022-11-11T12:50:40;13.80;99.90
22813;DHT22;11573;51.334;3.244;2022-11-11T12:53:46;13.70;99.90
22813;DHT22;11573;51.334;3.244;2022-11-11T13:00:04;13.80;99.90
22813;DHT22;11573;51.334;3.244;2022-11-11T13:03:20;13.90;99.90
22813;DHT22;11573;51.334;3.244;2022-11-11T13:09:44;14.00;99.90
22813;DHT22;11573;51.334;3.244;2022-11-11T13:16:01;13.90;99.90
22813;DHT22;11573;51.334;3.244;2022-11-11T13:19:03;13.80;99.90
22813;DHT22;11573;51.334;3.244;2022-11-11T13:25:04;13.80;99.90
22813;DHT22;11573;51.334;3.244;2022-11-11T13:31:13;14.10;99.90
22813;DHT22;11573;51.334;3.244;2022-11-11T13:34:04;14.00;99.90
22813;DHT22;11573;51.334;3.244;2022-11-11T13:36:55;13.90;99.90
22813;DHT22;11573;51.334;3.244;2022-11-11T13:39:46;13.80;99.90
22813;DHT22;11573;51.334;3.244;2022-11-11T13:42:41;13.80;99.90
22813;DHT22;11573;51.334;3.244;2022-11-11T13:45:35;13.80;99.90
22813;DHT22;11573;51.334;3.244;2022-11-11T13:48:31;13.70;99.90
22813;DHT22;11573;51.334;3.244;2022-11-11T13:54:57;13.70;99.90
22813;DHT22;11573;51.334;3.244;2022-11-11T13:57:49;13.70;99.90
22813;DHT22;11573;51.334;3.244;2022-11-11T14:00:36;13.70;99.90
22813;DHT22;11573;51.334;3.244;2022-11-11T14:09:00;13.60;99.90
22813;DHT22;11573;51.334;3.244;2022-11-11T14:11:46;13.60;99.90
22813;DHT22;11573;51.334;3.244;2022-11-11T14:17:21;13.70;99.90
22813;DHT22;11573;51.334;3.244;2022-11-11T14:28:58;13.70;99.90
22813;DHT22;11573;51.334;3.244;2022-11-11T14:38:03;13.60;99.90
22813;DHT22;11573;51.334;3.244;2022-11-11T14:40:51;13.50;99.90
22813;DHT22;11573;51.334;3.244;2022-11-11T14:43:38;13.50;99.90
22813;DHT22;11573;51.334;3.244;2022-11-11T14:46:24;13.50;99.90
22813;DHT22;11573;51.334;3.244;2022-11-11T14:49:10;13.40;99.90
22813;DHT22;11573;51.334;3.244;2022-11-11T14:52:00;13.40;99.90
22813;DHT22;11573;51.334;3.244;2022-11-11T14:57:39;13.30;99.90
22813;DHT22;11573;51.334;3.244;2022-11-11T15:00:28;13.20;99.90
22813;DHT22;11573;51.334;3.244;2022-11-11T15:03:25;13.10;99.90
22813;DHT22;11573;51.334;3.244;2022-11-11T15:15:20;12.60;99.90
22813;DHT22;11573;51.334;3.244;2022-11-11T15:34:23;12.10;99.90
22813;DHT22;11573;51.334;3.244;2022-11-11T15:37:14;11.90;99.90
22813;DHT22;11573;51.334;3.244;2022-11-11T15:40:00;11.80;99.90
22813;DHT22;11573;51.334;3.244;2022-11-11T15:42:46;11.70;99.90
22813;DHT22;11573;51.334;3.244;2022-11-11T15:45:35;11.60;99.90
22813;DHT22;11573;51.334;3.244;2022-11-11T15:48:28;11.50;99.90
22813;DHT22;11573;51.334;3.244;2022-11-11T15:51:29;11.50;99.90
22813;DHT22;11573;51.334;3.244;2022-11-11T15:54:18;11.40;99.90
22813;DHT22;11573;51.334;3.244;2022-11-11T16:00:25;11.10;99.90
22813;DHT22;11573;51.334;3.244;2022-11-11T16:03:16;11.10;99.90
22813;DHT22;11573;51.334;3.244;2022-11-11T16:06:05;11.00;99.90
22813;DHT22;11573;51.334;3.244;2022-11-11T16:08:52;10.90;99.90
22813;DHT22;11573;51.334;3.244;2022-11-11T16:11:41;10.70;99.90
22813;DHT22;11573;51.334;3.244;2022-11-11T16:14:31;10.70;99.90
22813;DHT22;11573;51.334;3.244;2022-11-11T16:17:24;10.60;99.90
22813;DHT22;11573;51.334;3.244;2022-11-11T16:20:15;10.50;99.90
22813;DHT22;11573;51.334;3.244;2022-11-11T16:23:05;10.50;99.90
22813;DHT22;11573;51.334;3.244;2022-11-11T16:25:51;10.40;99.90
22813;DHT22;11573;51.334;3.244;2022-11-11T16:28:39;10.40;99.90
22813;DHT22;11573;51.334;3.244;2022-11-11T16:31:38;10.30;99.90
22813;DHT22;11573;51.334;3.244;2022-11-11T16:37:16;10.30;99.90
22813;DHT22;11573;51.334;3.244;2022-11-11T16:43:24;10.10;99.90
22813;DHT22;11573;51.334;3.244;2022-11-11T16:46:13;10.00;99.90
22813;DHT22;11573;51.334;3.244;2022-11-11T16:52:14;9.90;99.90
22813;DHT22;11573;51.334;3.244;2022-11-11T16:55:01;9.90;99.90
22813;DHT22;11573;51.334;3.244;2022-11-11T16:57:47;9.90;99.90
22813;DHT22;11573;51.334;3.244;2022-11-11T17:00:33;9.90;99.90
22813;DHT22;11573;51.334;3.244;2022-11-11T17:03:22;9.80;99.90
22813;DHT22;11573;51.334;3.244;2022-11-11T17:06:10;9.70;99.90
22813;DHT22;11573;51.334;3.244;2022-11-11T17:08:56;9.70;99.90
22813;DHT22;11573;51.334;3.244;2022-11-11T17:11:44;9.60;99.90
22813;DHT22;11573;51.334;3.244;2022-11-11T17:14:32;9.60;99.90
22813;DHT22;11573;51.334;3.244;2022-11-11T17:17:18;9.50;99.90
22813;DHT22;11573;51.334;3.244;2022-11-11T17:20:10;9.50;99.90
22813;DHT22;11573;51.334;3.244;2022-11-11T17:22:56;9.40;99.90
22813;DHT22;11573;51.334;3.244;2022-11-11T17:25:43;9.40;99.90
22813;DHT22;11573;51.334;3.244;2022-11-11T17:28:35;9.40;99.90
22813;DHT22;11573;51.334;3.244;2022-11-11T17:31:21;9.40;99.90
22813;DHT22;11573;51.334;3.244;2022-11-11T17:34:09;9.20;99.90
22813;DHT22;11573;51.334;3.244;2022-11-11T17:36:55;9.20;99.90
22813;DHT22;11573;51.334;3.244;2022-11-11T17:39:40;9.10;99.90
22813;DHT22;11573;51.334;3.244;2022-11-11T17:42:30;9.00;99.90
22813;DHT22;11573;51.334;3.244;2022-11-11T17:45:16;8.90;99.90
22813;DHT22;11573;51.334;3.244;2022-11-11T17:48:02;8.90;99.90
22813;DHT22;11573;51.334;3.244;2022-11-11T17:50:47;8.90;99.90
22813;DHT22;11573;51.334;3.244;2022-11-11T17:53:34;8.90;99.90
22813;DHT22;11573;51.334;3.244;2022-11-11T17:56:21;8.80;99.90
22813;DHT22;11573;51.334;3.244;2022-11-11T17:59:07;8.80;99.90
22813;DHT22;11573;51.334;3.244;2022-11-11T18:01:52;8.80;99.90
22813;DHT22;11573;51.334;3.244;2022-11-11T18:04:39;8.80;99.90
22813;DHT22;11573;51.334;3.244;2022-11-11T18:07:24;8.90;99.90
22813;DHT22;11573;51.334;3.244;2022-11-11T18:10:10;8.90;99.90
22813;DHT22;11573;51.334;3.244;2022-11-11T18:12:57;8.90;99.90
22813;DHT22;11573;51.334;3.244;2022-11-11T18:15:42;8.90;99.90
22813;DHT22;11573;51.334;3.244;2022-11-11T18:18:29;8.90;99.90
22813;DHT22;11573;51.334;3.244;2022-11-11T18:21:15;8.90;99.90
22813;DHT22;11573;51.334;3.244;2022-11-11T18:24:06;9.00;99.90
22813;DHT22;11573;51.334;3.244;2022-11-11T18:26:51;8.90;99.90
22813;DHT22;11573;51.334;3.244;2022-11-11T18:29:37;9.00;99.90
22813;DHT22;11573;51.334;3.244;2022-11-11T18:32:22;9.10;99.90
22813;DHT22;11573;51.334;3.244;2022-11-11T18:35:08;9.00;99.90
22813;DHT22;11573;51.334;3.244;2022-11-11T18:37:55;9.00;99.90
22813;DHT22;11573;51.334;3.244;2022-11-11T18:40:40;9.00;99.90
22813;DHT22;11573;51.334;3.244;2022-11-11T18:43:26;9.10;99.90
22813;DHT22;11573;51.334;3.244;2022-11-11T18:46:14;9.10;99.90
22813;DHT22;11573;51.334;3.244;2022-11-11T18:49:02;9.20;99.90
22813;DHT22;11573;51.334;3.244;2022-11-11T18:51:48;9.20;99.90
22813;DHT22;11573;51.334;3.244;2022-11-11T18:54:34;9.20;99.90
22813;DHT22;11573;51.334;3.244;2022-11-11T18:57:20;9.30;99.90
22813;DHT22;11573;51.334;3.244;2022-11-11T19:00:06;9.30;99.90
22813;DHT22;11573;51.334;3.244;2022-11-11T19:02:51;9.30;99.90
22813;DHT22;11573;51.334;3.244;2022-11-11T19:05:37;9.30;99.90
22813;DHT22;11573;51.334;3.244;2022-11-11T19:08:22;9.40;99.90
22813;DHT22;11573;51.334;3.244;2022-11-11T19:11:08;9.40;99.90
22813;DHT22;11573;51.334;3.244;2022-11-11T19:13:54;9.30;99.90
22813;DHT22;11573;51.334;3.244;2022-11-11T19:16:39;9.30;99.90
22813;DHT22;11573;51.334;3.244;2022-11-11T19:19:25;9.30;99.90
22813;DHT22;11573;51.334;3.244;2022-11-11T19:22:11;9.30;99.90
22813;DHT22;11573;51.334;3.244;2022-11-11T19:24:57;9.30;99.90
22813;DHT22;11573;51.334;3.244;2022-11-11T19:27:42;9.30;99.90
22813;DHT22;11573;51.334;3.244;2022-11-11T19:30:28;9.30;99.90
22813;DHT22;11573;51.334;3.244;2022-11-11T19:33:13;9.30;99.90
22813;DHT22;11573;51.334;3.244;2022-11-11T19:36:02;9.20;99.90
22813;DHT22;11573;51.334;3.244;2022-11-11T19:38:48;9.20;99.90
22813;DHT22;11573;51.334;3.244;2022-11-11T19:41:33;9.20;99.90
22813;DHT22;11573;51.334;3.244;2022-11-11T19:44:19;9.20;99.90
22813;DHT22;11573;51.334;3.244;2022-11-11T19:47:05;9.10;99.90
22813;DHT22;11573;51.334;3.244;2022-11-11T19:49:51;9.20;99.90
22813;DHT22;11573;51.334;3.244;2022-11-11T19:52:37;9.20;99.90
22813;DHT22;11573;51.334;3.244;2022-11-11T19:55:22;9.10;99.90
22813;DHT22;11573;51.334;3.244;2022-11-11T19:58:07;9.10;99.90
22813;DHT22;11573;51.334;3.244;2022-11-11T20:00:57;9.10;99.90
22813;DHT22;11573;51.334;3.244;2022-11-11T20:03:43;9.10;99.90
22813;DHT22;11573;51.334;3.244;2022-11-11T20:06:35;9.20;99.90
22813;DHT22;11573;51.334;3.244;2022-11-11T20:09:21;9.10;99.90
22813;DHT22;11573;51.334;3.244;2022-11-11T20:12:06;9.10;99.90
22813;DHT22;11573;51.334;3.244;2022-11-11T20:14:51;9.10;99.90
22813;DHT22;11573;51.334;3.244;2022-11-11T20:17:37;9.20;99.90
22813;DHT22;11573;51.334;3.244;2022-11-11T20:20:23;9.20;99.90
22813;DHT22;11573;51.334;3.244;2022-11-11T20:23:08;9.10;99.90
22813;DHT22;11573;51.334;3.244;2022-11-11T20:25:55;9.10;99.90